createdAt,value
2023-04-15T00:01:12.121Z,79.28
2023-04-15T00:03:39.420Z,79.08
2023-04-15T00:06:06.323Z,78.98
2023-04-15T00:08:33.264Z,78.85
2023-04-15T00:11:05.904Z,79.73
2023-04-15T00:13:35.914Z,79.84
2023-04-15T00:16:02.745Z,79.23
2023-04-15T00:18:30.114Z,77.85
2023-04-15T00:20:56.859Z,77.43
2023-04-15T00:23:23.551Z,77.24
2023-04-15T00:25:51.007Z,77.32
2023-04-15T00:28:18.437Z,77.67
2023-04-15T00:30:45.866Z,76.86
2023-04-15T00:33:13.695Z,77.29
2023-04-15T00:35:40.712Z,79.52
2023-04-15T00:38:10.572Z,79.38
2023-04-15T00:40:37.884Z,78.34
2023-04-15T00:43:04.585Z,78.53
2023-04-15T00:45:31.937Z,79.41
2023-04-15T00:47:58.683Z,80.93
2023-04-15T00:50:25.483Z,80.21
2023-04-15T00:52:52.144Z,79.90
2023-04-15T00:55:19.281Z,79.55
2023-04-15T00:57:46.504Z,79.16
2023-04-15T01:00:13.610Z,80.06
2023-04-15T01:02:40.461Z,80.34
2023-04-15T01:05:08.420Z,80.28
2023-04-15T01:07:35.162Z,79.83
2023-04-15T01:10:03.938Z,79.93
2023-04-15T01:12:33.290Z,80.83
2023-04-15T01:15:00.376Z,80.53
2023-04-15T01:17:27.206Z,79.59
2023-04-15T01:19:56.894Z,78.81
2023-04-15T01:22:24.561Z,79.81
2023-04-15T01:25:02.425Z,78.80
2023-04-15T01:27:31.278Z,78.29
2023-04-15T01:29:58.392Z,77.90
2023-04-15T01:32:25.396Z,77.81
2023-04-15T01:35:10.871Z,77.88
2023-04-15T01:37:48.399Z,78.72
2023-04-15T01:40:17.395Z,77.97
2023-04-15T01:42:45.632Z,76.91
2023-04-15T01:45:14.121Z,78.39
2023-04-15T01:47:42.071Z,77.79
2023-04-15T01:50:11.185Z,78.50
2023-04-15T01:52:39.135Z,78.75
2023-04-15T01:55:08.556Z,78.20
2023-04-15T01:57:39.904Z,78.09
2023-04-15T02:00:08.504Z,78.38
2023-04-15T02:02:43.639Z,79.92
2023-04-15T02:05:11.837Z,80.49
2023-04-15T02:07:39.713Z,80.21
2023-04-15T02:10:07.941Z,79.78
2023-04-15T02:12:36.923Z,78.82
2023-04-15T02:15:05.633Z,78.64
2023-04-15T02:17:39.395Z,78.70
2023-04-15T02:20:09.408Z,79.39
2023-04-15T02:22:37.625Z,78.32
2023-04-15T02:25:06.144Z,78.89
2023-04-15T02:27:34.125Z,78.04
2023-04-15T02:30:03.156Z,78.29
2023-04-15T02:32:31.279Z,78.25
2023-04-15T02:35:08.967Z,79.03
2023-04-15T02:37:41.706Z,77.90
2023-04-15T02:40:13.935Z,79.23
2023-04-15T02:42:46.277Z,78.07
2023-04-15T02:45:16.913Z,78.35
2023-04-15T02:47:46.886Z,78.00
2023-04-15T02:50:15.195Z,79.19
2023-04-15T02:52:44.655Z,79.80
2023-04-15T02:55:12.688Z,78.99
2023-04-15T02:57:41.257Z,77.96
2023-04-15T03:00:12.058Z,78.31
2023-04-15T03:02:43.931Z,78.19
2023-04-15T03:05:13.828Z,78.18
2023-04-15T03:07:47.533Z,77.84
2023-04-15T03:10:15.575Z,77.09
2023-04-15T03:12:43.493Z,77.64
2023-04-15T03:15:16.787Z,76.52
2023-04-15T03:17:49.634Z,76.65
2023-04-15T03:20:18.432Z,79.00
2023-04-15T03:22:46.608Z,78.48
2023-04-15T03:25:14.582Z,78.79
2023-04-15T03:27:42.658Z,77.98
2023-04-15T03:30:11.203Z,79.22
2023-04-15T03:32:40.154Z,80.45
2023-04-15T03:35:09.896Z,80.62
2023-04-15T03:37:37.797Z,79.72
2023-04-15T03:40:06.258Z,79.92
2023-04-15T03:42:34.257Z,79.11
2023-04-15T03:45:02.162Z,79.42
2023-04-15T03:47:30.068Z,78.81
2023-04-15T03:49:57.978Z,78.90
2023-04-15T03:52:26.076Z,78.74
2023-04-15T03:54:53.909Z,79.43
2023-04-15T03:57:21.817Z,78.23
2023-04-15T03:59:49.741Z,78.59
2023-04-15T04:02:17.955Z,78.71
2023-04-15T04:04:46.463Z,78.60
2023-04-15T04:07:18.339Z,77.66
2023-04-15T04:09:47.400Z,79.56
2023-04-15T04:12:15.609Z,78.60
2023-04-15T04:14:43.649Z,79.44
2023-04-15T04:17:11.853Z,79.51
2023-04-15T04:19:39.809Z,79.75
2023-04-15T04:22:07.864Z,79.48
2023-04-15T04:24:35.802Z,78.90
2023-04-15T04:27:03.769Z,79.26
2023-04-15T04:29:31.754Z,78.91
2023-04-15T04:31:59.824Z,79.18
2023-04-15T04:34:27.907Z,79.89
2023-04-15T04:36:56.018Z,79.46
2023-04-15T04:39:23.927Z,79.92
2023-04-15T04:41:54.603Z,78.92
2023-04-15T04:44:22.456Z,79.70
2023-04-15T04:46:52.681Z,80.98
2023-04-15T04:49:20.608Z,80.23
2023-04-15T04:51:48.954Z,80.49
2023-04-15T04:54:17.624Z,78.26
2023-04-15T04:56:45.696Z,78.03
2023-04-15T04:59:13.940Z,78.14
2023-04-15T05:01:42.072Z,77.48
2023-04-15T05:04:10.100Z,76.55
2023-04-15T05:06:38.125Z,76.63
2023-04-15T05:09:06.122Z,77.38
2023-04-15T05:11:33.978Z,78.95
2023-04-15T05:14:02.428Z,78.94
2023-04-15T05:16:30.464Z,78.26
2023-04-15T05:18:58.427Z,77.80
2023-04-15T05:21:27.733Z,77.90
2023-04-15T05:23:55.684Z,78.30
2023-04-15T05:26:24.382Z,77.91
2023-04-15T05:28:52.300Z,78.84
2023-04-15T05:31:20.511Z,79.44
2023-04-15T05:33:48.531Z,79.24
2023-04-15T05:36:16.589Z,78.38
2023-04-15T05:38:44.533Z,78.01
2023-04-15T05:41:12.446Z,78.68
2023-04-15T05:43:40.576Z,77.68
2023-04-15T05:46:08.685Z,78.10
2023-04-15T05:48:36.802Z,78.02
2023-04-15T05:51:04.952Z,78.30
2023-04-15T05:53:32.941Z,77.60
2023-04-15T05:56:00.811Z,77.93
2023-04-15T05:58:28.676Z,78.58
2023-04-15T06:00:57.054Z,78.46
2023-04-15T06:03:25.567Z,78.02
2023-04-15T06:05:56.400Z,77.61
2023-04-15T06:08:24.370Z,78.45
2023-04-15T06:10:53.229Z,78.72
2023-04-15T06:13:21.484Z,78.31
2023-04-15T06:15:49.524Z,79.23
2023-04-15T06:18:17.461Z,78.93
2023-04-15T06:20:45.548Z,78.87
2023-04-15T06:23:13.428Z,78.15
2023-04-15T06:25:41.627Z,77.61
2023-04-15T06:28:09.702Z,78.66
2023-04-15T06:30:38.513Z,78.60
2023-04-15T06:33:06.569Z,78.69
2023-04-15T06:35:37.056Z,79.18
2023-04-15T06:38:05.395Z,78.45
2023-04-15T06:40:33.666Z,78.33
2023-04-15T06:43:01.883Z,78.06
2023-04-15T06:45:30.685Z,78.74
2023-04-15T06:47:58.611Z,79.56
2023-04-15T06:50:27.435Z,78.56
2023-04-15T06:52:56.287Z,79.54
2023-04-15T06:55:24.275Z,80.42
2023-04-15T06:57:52.384Z,80.34
2023-04-15T07:00:20.424Z,79.68
2023-04-15T07:02:48.733Z,79.87
2023-04-15T07:05:16.786Z,79.11
2023-04-15T07:07:45.701Z,80.05
2023-04-15T07:10:14.964Z,80.22
2023-04-15T07:12:43.120Z,79.97
2023-04-15T07:15:11.297Z,79.29
2023-04-15T07:17:39.492Z,79.53
2023-04-15T07:20:08.327Z,79.42
2023-04-15T07:22:36.588Z,79.16
2023-04-15T07:25:04.867Z,78.62
2023-04-15T07:27:33.137Z,79.32
2023-04-15T07:30:01.003Z,80.55
2023-04-15T07:32:28.886Z,79.75
2023-04-15T07:34:57.046Z,80.43
2023-04-15T07:37:25.065Z,79.62
2023-04-15T07:39:53.110Z,79.14
2023-04-15T07:42:22.198Z,78.34
2023-04-15T07:44:50.302Z,78.48
2023-04-15T07:47:18.469Z,77.69
2023-04-15T07:49:46.387Z,77.03
2023-04-15T07:52:14.395Z,77.36
2023-04-15T07:54:42.421Z,77.75
2023-04-15T07:57:10.300Z,77.39
2023-04-15T07:59:38.359Z,77.14
2023-04-15T08:02:06.464Z,77.46
2023-04-15T08:04:34.620Z,76.78
2023-04-15T08:07:04.087Z,75.65
2023-04-15T08:09:32.054Z,76.45
2023-04-15T08:12:00.117Z,76.35
2023-04-15T08:14:29.525Z,78.23
2023-04-15T08:16:57.424Z,78.38
2023-04-15T08:19:25.353Z,77.62
2023-04-15T08:21:53.287Z,77.80
2023-04-15T08:24:22.753Z,77.66
2023-04-15T08:26:53.552Z,80.01
2023-04-15T08:29:21.501Z,79.76
2023-04-15T08:31:49.495Z,80.57
2023-04-15T08:34:18.196Z,80.37
2023-04-15T08:36:46.519Z,80.60
2023-04-15T08:39:14.491Z,80.27
2023-04-15T08:41:56.586Z,79.45
2023-04-15T08:44:25.872Z,81.07
2023-04-15T08:46:55.500Z,81.29
2023-04-15T08:49:27.037Z,80.07
2023-04-15T08:51:58.349Z,81.57
2023-04-15T08:54:28.089Z,81.68
2023-04-15T08:56:57.866Z,81.35
2023-04-15T08:59:25.855Z,80.61
2023-04-15T09:01:55.434Z,80.09
2023-04-15T09:04:23.314Z,79.79
2023-04-15T09:06:52.233Z,80.31
2023-04-15T09:09:20.259Z,79.32
2023-04-15T09:11:49.997Z,79.04
2023-04-15T09:14:18.338Z,78.52
2023-04-15T09:17:00.820Z,77.67
2023-04-15T09:19:29.614Z,77.56
2023-04-15T09:21:59.602Z,78.96
2023-04-15T09:24:39.798Z,79.06
2023-04-15T09:27:07.813Z,78.89
2023-04-15T09:29:37.060Z,79.78
2023-04-15T09:32:13.587Z,79.51
2023-04-15T09:34:41.881Z,79.64
2023-04-15T09:37:10.988Z,79.90
2023-04-15T09:39:50.495Z,78.87
2023-04-15T09:42:24.612Z,79.87
2023-04-15T09:44:56.010Z,80.65
2023-04-15T09:47:28.443Z,80.04
2023-04-15T09:49:57.880Z,79.53
2023-04-15T09:52:26.120Z,78.67
2023-04-15T09:54:58.699Z,78.42
2023-04-15T09:57:34.821Z,78.89
2023-04-15T10:00:11.502Z,79.36
2023-04-15T10:02:42.266Z,79.18
2023-04-15T10:05:16.433Z,78.50
2023-04-15T10:07:44.437Z,79.03
2023-04-15T10:10:13.485Z,78.62
2023-04-15T10:12:42.211Z,79.50
2023-04-15T10:15:16.713Z,79.09
2023-04-15T10:17:45.823Z,78.58
2023-04-15T10:20:15.053Z,79.08
2023-04-15T10:22:45.178Z,78.64
2023-04-15T10:25:15.654Z,77.97
2023-04-15T10:27:43.652Z,77.86
2023-04-15T10:30:12.534Z,77.41
2023-04-15T10:32:41.424Z,77.48
2023-04-15T10:35:09.742Z,76.09
2023-04-15T10:37:39.005Z,76.15
2023-04-15T10:40:31.330Z,76.30
2023-04-15T10:43:01.593Z,78.13
2023-04-15T10:45:37.723Z,77.88
2023-04-15T10:48:08.438Z,78.13
2023-04-15T10:50:37.695Z,77.41
2023-04-15T10:53:06.114Z,76.90
2023-04-15T10:55:34.679Z,76.70
2023-04-15T10:58:03.086Z,77.51
2023-04-15T11:00:32.814Z,78.27
2023-04-15T11:03:09.757Z,79.99
2023-04-15T11:05:53.979Z,79.56
2023-04-15T11:08:53.697Z,80.71
2023-04-15T11:11:21.694Z,80.83
2023-04-15T11:13:52.459Z,79.82
2023-04-15T11:16:21.531Z,78.86
2023-04-15T11:18:56.081Z,77.34
2023-04-15T11:21:26.336Z,79.05
2023-04-15T11:23:54.241Z,79.88
2023-04-15T11:26:27.173Z,79.55
2023-04-15T11:28:55.162Z,79.57
2023-04-15T11:31:27.837Z,78.19
2023-04-15T11:33:59.002Z,78.95
2023-04-15T11:36:28.538Z,79.63
2023-04-15T11:38:58.332Z,78.83
2023-04-15T11:41:26.369Z,78.93
2023-04-15T11:43:54.318Z,77.61
2023-04-15T11:46:29.214Z,79.53
2023-04-15T11:48:57.108Z,79.52
2023-04-15T11:51:25.054Z,77.62
2023-04-15T11:53:52.112Z,79.25
2023-04-15T11:56:24.546Z,78.32
2023-04-15T11:58:59.740Z,78.05
2023-04-15T12:01:33.289Z,77.48
2023-04-15T12:04:01.539Z,78.24
2023-04-15T12:06:35.175Z,78.27
2023-04-15T12:09:09.754Z,79.76
2023-04-15T12:11:36.362Z,78.60
2023-04-15T12:14:06.452Z,78.05
2023-04-15T12:16:48.288Z,77.46
2023-04-15T12:19:28.701Z,76.39
2023-04-15T12:22:01.436Z,77.52
2023-04-15T12:24:30.962Z,77.51
2023-04-15T12:27:01.807Z,76.86
2023-04-15T12:29:30.420Z,76.22
2023-04-15T12:32:14.549Z,75.58
2023-04-15T12:34:50.859Z,76.12
2023-04-15T12:37:17.754Z,75.73
2023-04-15T12:39:48.867Z,74.89
2023-04-15T12:42:16.991Z,75.69
2023-04-15T12:44:43.915Z,73.30
2023-04-15T12:47:11.474Z,73.67
2023-04-15T12:49:38.572Z,74.66
2023-04-15T12:52:05.665Z,74.67
2023-04-15T12:54:32.515Z,73.53
2023-04-15T12:56:59.563Z,73.41
2023-04-15T12:59:27.212Z,72.97
2023-04-15T13:01:54.612Z,70.80
2023-04-15T13:04:21.962Z,71.99
2023-04-15T13:06:48.874Z,71.24
2023-04-15T13:09:15.803Z,72.46
2023-04-15T13:11:42.857Z,72.03
2023-04-15T13:14:11.522Z,73.19
2023-04-15T13:16:39.670Z,72.43
2023-04-15T13:19:06.550Z,73.38
2023-04-15T13:21:35.705Z,72.79
2023-04-15T13:24:04.907Z,72.30
2023-04-15T13:26:32.340Z,73.69
2023-04-15T13:28:59.445Z,73.18
2023-04-15T13:31:26.343Z,72.52
2023-04-15T13:33:53.291Z,73.47
2023-04-15T13:36:20.059Z,72.03
2023-04-15T13:38:48.043Z,73.57
2023-04-15T13:41:16.459Z,73.54
2023-04-15T13:43:43.377Z,72.16
2023-04-15T13:46:10.436Z,72.56
2023-04-15T13:48:37.153Z,72.62
2023-04-15T13:51:03.867Z,72.10
2023-04-15T13:53:37.772Z,72.73
2023-04-15T13:56:09.323Z,72.35
2023-04-15T13:58:37.030Z,71.86
2023-04-15T14:01:05.710Z,72.32
2023-04-15T14:03:34.031Z,72.76
2023-04-15T14:06:01.082Z,72.31
2023-04-15T14:08:27.777Z,73.69
2023-04-15T14:10:54.394Z,73.09
2023-04-15T14:13:21.081Z,72.99
2023-04-15T14:15:47.713Z,72.79
2023-04-15T14:18:14.553Z,73.53
2023-04-15T14:20:41.191Z,73.35
2023-04-15T14:23:07.970Z,72.34
2023-04-15T14:25:34.618Z,72.95
2023-04-15T14:28:02.398Z,71.65
2023-04-15T14:30:29.030Z,72.02
2023-04-15T14:32:56.191Z,72.25
2023-04-15T14:35:24.516Z,72.30
2023-04-15T14:37:51.367Z,73.20
2023-04-15T14:40:18.379Z,74.38
2023-04-15T14:42:45.313Z,74.42
2023-04-15T14:45:12.067Z,73.66
2023-04-15T14:47:38.836Z,74.70
2023-04-15T14:50:05.968Z,74.27
2023-04-15T14:52:39.032Z,73.99
2023-04-15T14:55:13.175Z,73.88
2023-04-15T14:57:41.647Z,74.11
2023-04-15T15:00:10.455Z,73.61
2023-04-15T15:02:40.253Z,73.58
2023-04-15T15:05:08.559Z,72.68
2023-04-15T15:07:37.157Z,72.65
2023-04-15T15:10:04.560Z,72.88
2023-04-15T15:12:31.154Z,72.13
2023-04-15T15:14:57.925Z,71.23
2023-04-15T15:17:24.616Z,71.38
2023-04-15T15:19:51.524Z,71.15
2023-04-15T15:22:20.780Z,71.19
2023-04-15T15:24:48.320Z,71.47
2023-04-15T15:27:15.001Z,70.92
2023-04-15T15:29:41.621Z,70.44
2023-04-15T15:32:08.211Z,71.58
2023-04-15T15:34:34.918Z,70.91
2023-04-15T15:37:01.954Z,72.06
2023-04-15T15:39:28.757Z,71.74
2023-04-15T15:41:55.417Z,70.66
2023-04-15T15:44:22.216Z,71.90
2023-04-15T15:46:50.442Z,71.28
2023-04-15T15:49:17.270Z,70.86
2023-04-15T15:51:43.967Z,71.34
2023-04-15T15:54:10.731Z,72.37
2023-04-15T15:56:39.450Z,71.18
2023-04-15T15:59:06.315Z,71.33
2023-04-15T16:01:33.311Z,70.79
2023-04-15T16:04:00.821Z,71.61
2023-04-15T16:06:28.278Z,71.56
2023-04-15T16:08:55.089Z,71.79
2023-04-15T16:11:21.737Z,72.25
2023-04-15T16:13:48.460Z,71.93
2023-04-15T16:16:15.289Z,71.65
2023-04-15T16:18:42.030Z,72.64
2023-04-15T16:21:08.650Z,72.95
2023-04-15T16:23:36.707Z,73.37
2023-04-15T16:26:03.512Z,72.62
2023-04-15T16:28:30.263Z,72.62
2023-04-15T16:30:57.231Z,72.67
2023-04-15T16:33:24.175Z,72.63
2023-04-15T16:35:51.465Z,73.29
2023-04-15T16:38:18.148Z,72.32
2023-04-15T16:40:46.074Z,73.06
2023-04-15T16:43:12.677Z,71.87
2023-04-15T16:45:39.291Z,71.64
2023-04-15T16:48:06.303Z,71.69
2023-04-15T16:50:33.013Z,72.06
2023-04-15T16:52:59.712Z,71.71
2023-04-15T16:55:26.809Z,72.95
2023-04-15T16:58:02.230Z,72.48
2023-04-15T17:00:31.383Z,73.26
2023-04-15T17:02:59.076Z,73.63
2023-04-15T17:05:27.627Z,73.66
2023-04-15T17:07:54.768Z,72.52
2023-04-15T17:10:21.526Z,74.00
2023-04-15T17:12:49.754Z,73.75
2023-04-15T17:15:16.559Z,73.99
2023-04-15T17:17:46.746Z,72.90
2023-04-15T17:20:13.961Z,72.86
2023-04-15T17:22:41.068Z,71.68
2023-04-15T17:25:08.212Z,73.03
2023-04-15T17:27:40.988Z,72.75
2023-04-15T17:30:14.473Z,73.07
2023-04-15T17:33:01.712Z,72.89
2023-04-15T17:35:48.381Z,72.28
2023-04-15T17:38:35.009Z,71.85
2023-04-15T17:41:21.672Z,70.44
2023-04-15T17:44:08.283Z,72.30
2023-04-15T17:46:55.046Z,71.69
2023-04-15T17:49:41.877Z,70.69
2023-04-15T17:52:28.892Z,69.99
2023-04-15T17:55:15.650Z,70.64
2023-04-15T17:58:02.321Z,70.41
2023-04-15T18:00:49.105Z,70.11
2023-04-15T18:03:35.922Z,70.31
2023-04-15T18:06:22.724Z,70.15
2023-04-15T18:09:09.471Z,70.05
2023-04-15T18:11:57.229Z,69.35
2023-04-15T18:14:43.847Z,70.82
2023-04-15T18:17:30.807Z,70.19
2023-04-15T18:20:14.958Z,70.65
2023-04-15T18:22:43.902Z,69.86
2023-04-15T18:25:10.848Z,70.25
2023-04-15T18:27:40.717Z,71.01
2023-04-15T18:30:09.299Z,70.22
2023-04-15T18:32:36.111Z,69.84
2023-04-15T18:35:05.637Z,70.12
2023-04-15T18:37:32.772Z,69.79
2023-04-15T18:39:59.576Z,70.66
2023-04-15T18:42:26.295Z,70.00
2023-04-15T18:44:53.416Z,70.58
2023-04-15T18:47:20.047Z,70.33
2023-04-15T18:49:46.793Z,70.93
2023-04-15T18:52:13.472Z,70.79
2023-04-15T18:54:40.072Z,70.05
2023-04-15T18:57:06.937Z,68.81
2023-04-15T18:59:34.683Z,69.77
2023-04-15T19:02:03.460Z,69.29
2023-04-15T19:04:30.546Z,69.70
2023-04-15T19:06:58.771Z,68.48
2023-04-15T19:09:26.083Z,69.00
2023-04-15T19:11:52.640Z,68.88
2023-04-15T19:14:19.329Z,68.99
2023-04-15T19:16:46.060Z,68.74
2023-04-15T19:19:14.507Z,69.99
2023-04-15T19:21:41.742Z,68.52
2023-04-15T19:24:08.574Z,69.82
2023-04-15T19:26:36.811Z,69.17
2023-04-15T19:29:03.746Z,69.30
2023-04-15T19:31:30.735Z,69.21
2023-04-15T19:33:57.337Z,69.60
2023-04-15T19:36:24.113Z,70.03
2023-04-15T19:38:50.927Z,69.46
2023-04-15T19:41:17.595Z,69.73
2023-04-15T19:43:44.262Z,69.77
2023-04-15T19:46:13.256Z,69.18
2023-04-15T19:48:40.258Z,69.32
2023-04-15T19:51:06.908Z,69.29
2023-04-15T19:53:33.575Z,69.50
2023-04-15T19:56:00.371Z,70.09
2023-04-15T19:58:27.020Z,69.78
2023-04-15T20:00:53.618Z,68.31
2023-04-15T20:03:20.940Z,69.71
2023-04-15T20:05:47.716Z,69.30
2023-04-15T20:08:14.374Z,68.49
2023-04-15T20:10:41.049Z,69.03
2023-04-15T20:13:07.878Z,68.39
2023-04-15T20:15:34.679Z,68.62
2023-04-15T20:18:01.558Z,68.93
2023-04-15T20:20:28.251Z,68.29
2023-04-15T20:22:54.944Z,68.24
2023-04-15T20:25:21.577Z,67.40
2023-04-15T20:27:48.326Z,67.21
2023-04-15T20:30:14.988Z,67.55
2023-04-15T20:32:41.690Z,67.77
2023-04-15T20:35:08.509Z,68.52
2023-04-15T20:37:37.540Z,68.43
2023-04-15T20:40:04.521Z,69.15
2023-04-15T20:42:34.634Z,69.81
2023-04-15T20:45:02.283Z,69.39
2023-04-15T20:47:29.253Z,68.97
2023-04-15T20:49:56.245Z,68.80
2023-04-15T20:52:22.906Z,68.62
2023-04-15T20:54:50.139Z,68.57
2023-04-15T20:57:17.232Z,68.62
2023-04-15T20:59:43.953Z,68.64
2023-04-15T21:02:10.880Z,67.91
2023-04-15T21:04:38.421Z,69.03
2023-04-15T21:07:05.077Z,70.01
2023-04-15T21:09:31.812Z,70.58
2023-04-15T21:12:01.706Z,69.22
2023-04-15T21:14:29.037Z,69.59
2023-04-15T21:16:58.238Z,69.98
2023-04-15T21:19:25.046Z,69.48
2023-04-15T21:21:52.256Z,69.74
2023-04-15T21:24:18.984Z,70.29
2023-04-15T21:26:45.568Z,69.79
2023-04-15T21:29:12.410Z,69.71
2023-04-15T21:31:40.204Z,70.01
2023-04-15T21:34:06.941Z,70.55
2023-04-15T21:36:34.304Z,70.23
2023-04-15T21:39:02.467Z,70.73
2023-04-15T21:41:29.563Z,70.23
2023-04-15T21:43:56.234Z,69.99
2023-04-15T21:46:25.696Z,69.94
2023-04-15T21:48:59.898Z,70.04
2023-04-15T21:51:26.895Z,70.03
2023-04-15T21:53:53.748Z,71.20
2023-04-15T21:56:23.134Z,70.33
2023-04-15T21:58:50.100Z,70.30
2023-04-15T22:01:17.496Z,70.55
2023-04-15T22:03:44.454Z,70.73
2023-04-15T22:06:11.542Z,70.57
2023-04-15T22:08:48.277Z,71.39
2023-04-15T22:11:26.445Z,70.86
2023-04-15T22:13:53.996Z,70.97
2023-04-15T22:16:20.683Z,69.70
2023-04-15T22:18:47.409Z,70.53
2023-04-15T22:21:14.215Z,70.94
2023-04-15T22:23:41.184Z,70.71
2023-04-15T22:26:07.932Z,70.14
2023-04-15T22:28:34.553Z,71.07
2023-04-15T22:31:02.530Z,71.23
2023-04-15T22:33:29.507Z,70.62
2023-04-15T22:35:56.638Z,71.00
2023-04-15T22:38:24.038Z,71.55
2023-04-15T22:40:53.812Z,71.38
2023-04-15T22:43:20.573Z,72.09
2023-04-15T22:45:51.132Z,71.47
2023-04-15T22:48:18.765Z,70.95
2023-04-15T22:50:45.792Z,71.42
2023-04-15T22:53:12.611Z,71.05
2023-04-15T22:55:39.253Z,70.97
2023-04-15T22:58:05.947Z,70.86
2023-04-15T23:00:32.630Z,70.91
2023-04-15T23:02:59.475Z,71.41
2023-04-15T23:05:26.369Z,71.38
2023-04-15T23:07:53.148Z,70.98
2023-04-15T23:10:19.757Z,69.92
2023-04-15T23:12:46.808Z,70.24
2023-04-15T23:15:13.462Z,71.00
2023-04-15T23:17:42.159Z,70.54
2023-04-15T23:20:09.307Z,69.44
2023-04-15T23:22:38.838Z,70.41
2023-04-15T23:25:05.877Z,69.74
2023-04-15T23:27:32.570Z,70.44
2023-04-15T23:29:59.227Z,69.44
2023-04-15T23:32:27.338Z,69.79
2023-04-15T23:34:54.279Z,69.47
2023-04-15T23:37:20.973Z,69.56
2023-04-15T23:39:47.592Z,69.59
2023-04-15T23:42:14.277Z,69.67
2023-04-15T23:44:40.892Z,70.09
2023-04-15T23:47:07.552Z,69.93
2023-04-15T23:49:34.227Z,70.00
2023-04-15T23:52:00.864Z,68.23
2023-04-15T23:54:27.474Z,69.95
2023-04-15T23:56:54.071Z,70.57
2023-04-15T23:59:20.827Z,69.55
